createdAt,value
2017-10-09T00:00:16.568Z,0
2017-10-09T00:01:25.731Z,0
2017-10-09T00:02:34.561Z,0
2017-10-09T00:03:43.390Z,0
2017-10-09T00:04:52.518Z,0
2017-10-09T00:06:01.348Z,0
2017-10-09T00:07:10.512Z,0
2017-10-09T00:08:19.341Z,0
2017-10-09T00:09:28.171Z,0
2017-10-09T00:10:37.202Z,0
2017-10-09T00:11:46.044Z,0
2017-10-09T00:12:54.873Z,0
2017-10-09T00:14:03.705Z,0
2017-10-09T00:15:12.537Z,0
2017-10-09T00:16:21.566Z,0
2017-10-09T00:17:30.398Z,0
2017-10-09T00:18:39.229Z,0
2017-10-09T00:19:48.060Z,0
2017-10-09T00:20:56.892Z,0
2017-10-09T00:22:05.925Z,0
2017-10-09T00:23:14.758Z,0
2017-10-09T00:24:23.591Z,0
2017-10-09T00:25:32.751Z,0
2017-10-09T00:26:41.924Z,0
2017-10-09T00:27:51.161Z,0
2017-10-09T00:29:00.321Z,0
2017-10-09T00:30:09.154Z,0
2017-10-09T00:31:17.987Z,0
2017-10-09T00:32:26.820Z,0
2017-10-09T00:33:35.652Z,0
2017-10-09T00:34:44.819Z,0
2017-10-09T00:35:53.649Z,0
2017-10-09T00:37:02.480Z,0
2017-10-09T00:38:11.311Z,0
2017-10-09T00:39:20.193Z,0
2017-10-09T00:40:29.030Z,0
2017-10-09T00:41:37.862Z,0
2017-10-09T00:42:46.695Z,0
2017-10-09T00:43:55.529Z,0
2017-10-09T00:45:04.510Z,0
2017-10-09T00:46:13.340Z,0
2017-10-09T00:47:22.173Z,0
2017-10-09T00:48:31.004Z,0
2017-10-09T00:49:39.833Z,0
2017-10-09T00:50:48.667Z,0
2017-10-09T00:51:57.499Z,0
2017-10-09T00:53:06.330Z,0
2017-10-09T00:54:15.163Z,0
2017-10-09T00:55:23.996Z,0
2017-10-09T00:56:33.077Z,0
2017-10-09T00:57:41.907Z,0
2017-10-09T00:58:50.738Z,0
2017-10-09T00:59:59.572Z,0
2017-10-09T01:01:08.408Z,0
2017-10-09T01:02:17.491Z,0
2017-10-09T01:03:26.325Z,0
2017-10-09T01:04:35.159Z,0
2017-10-09T01:05:43.991Z,0
2017-10-09T01:06:52.821Z,0
2017-10-09T01:08:01.799Z,0
2017-10-09T01:09:10.631Z,0
2017-10-09T01:10:19.799Z,0
2017-10-09T01:11:28.970Z,0
2017-10-09T01:12:37.801Z,0
2017-10-09T01:13:46.783Z,0
2017-10-09T01:14:55.613Z,0
2017-10-09T01:16:04.494Z,0
2017-10-09T01:17:13.327Z,0
2017-10-09T01:18:22.157Z,0
2017-10-09T01:19:31.239Z,0
2017-10-09T01:20:40.071Z,0
2017-10-09T01:21:48.900Z,0
2017-10-09T01:22:57.734Z,0
2017-10-09T01:24:06.566Z,0
2017-10-09T01:25:15.799Z,0
2017-10-09T01:26:24.635Z,0
2017-10-09T01:27:33.463Z,0
2017-10-09T01:28:42.296Z,0
2017-10-09T01:29:51.465Z,0
2017-10-09T01:31:00.444Z,0
2017-10-09T01:32:09.274Z,0
2017-10-09T01:33:18.104Z,0
2017-10-09T01:34:26.936Z,0
2017-10-09T01:35:35.768Z,0
2017-10-09T01:36:44.899Z,0
2017-10-09T01:37:53.729Z,0
2017-10-09T01:39:02.559Z,0
2017-10-09T01:40:11.391Z,0
2017-10-09T01:41:20.223Z,0
2017-10-09T01:42:29.103Z,0
2017-10-09T01:43:37.935Z,0
2017-10-09T01:44:46.765Z,0
2017-10-09T01:45:55.599Z,0
2017-10-09T01:47:04.430Z,0
2017-10-09T01:48:13.893Z,0
2017-10-09T01:49:22.725Z,0
2017-10-09T01:50:31.557Z,0
2017-10-09T01:51:40.388Z,0
2017-10-09T01:52:49.219Z,0
2017-10-09T01:53:58.200Z,0
2017-10-09T01:55:07.028Z,0
2017-10-09T01:56:15.859Z,0
2017-10-09T01:57:24.689Z,0
2017-10-09T01:58:33.518Z,0
2017-10-09T01:59:42.501Z,0
2017-10-09T02:00:51.329Z,0
2017-10-09T02:02:00.159Z,0
2017-10-09T02:03:08.991Z,0
2017-10-09T02:04:17.821Z,0
2017-10-09T02:05:26.803Z,0
2017-10-09T02:06:35.633Z,0
2017-10-09T02:07:44.464Z,0
2017-10-09T02:08:53.293Z,0
2017-10-09T02:10:02.123Z,0
2017-10-09T02:11:11.157Z,0
2017-10-09T02:12:20.316Z,0
2017-10-09T02:13:29.145Z,0
2017-10-09T02:14:37.976Z,0
2017-10-09T02:15:46.805Z,0
2017-10-09T02:16:56.119Z,0
2017-10-09T02:18:04.952Z,0
2017-10-09T02:19:13.783Z,0
2017-10-09T02:20:22.614Z,0
2017-10-09T02:21:31.446Z,0
2017-10-09T02:22:40.475Z,0
2017-10-09T02:23:49.307Z,0
2017-10-09T02:24:58.469Z,0
2017-10-09T02:26:07.304Z,0
2017-10-09T02:27:16.473Z,0
2017-10-09T02:28:25.604Z,0
2017-10-09T02:29:34.431Z,0
2017-10-09T02:30:43.262Z,0
2017-10-09T02:31:52.092Z,0
2017-10-09T02:33:00.924Z,0
2017-10-09T02:34:09.904Z,0
2017-10-09T02:35:18.733Z,0
2017-10-09T02:36:27.564Z,0
2017-10-09T02:37:36.395Z,0
2017-10-09T02:38:45.232Z,0
2017-10-09T02:39:54.210Z,0
2017-10-09T02:41:03.040Z,0
2017-10-09T02:42:11.868Z,0
2017-10-09T02:43:20.699Z,0
2017-10-09T02:44:29.530Z,0
2017-10-09T02:45:38.661Z,0
2017-10-09T02:46:47.491Z,0
2017-10-09T02:47:56.321Z,0
2017-10-09T02:49:05.154Z,0
2017-10-09T02:50:13.985Z,0
2017-10-09T02:51:22.864Z,0
2017-10-09T02:52:31.693Z,0
2017-10-09T02:53:40.524Z,0
2017-10-09T02:54:49.355Z,0
2017-10-09T02:55:58.191Z,0
2017-10-09T02:57:07.216Z,0
2017-10-09T02:58:16.044Z,0
2017-10-09T02:59:24.875Z,0
2017-10-09T03:00:33.707Z,0
2017-10-09T03:01:42.539Z,0
2017-10-09T03:02:51.567Z,0
2017-10-09T03:04:00.397Z,0
2017-10-09T03:05:09.228Z,0
2017-10-09T03:06:18.387Z,0
2017-10-09T03:07:27.219Z,0
2017-10-09T03:08:36.151Z,0
2017-10-09T03:09:44.980Z,0
2017-10-09T03:10:53.809Z,0
2017-10-09T03:12:02.639Z,0
2017-10-09T03:13:11.470Z,0
2017-10-09T03:14:20.458Z,0
2017-10-09T03:15:29.288Z,0
2017-10-09T03:16:38.450Z,0
2017-10-09T03:17:47.283Z,0
2017-10-09T03:18:56.122Z,0
2017-10-09T03:20:05.205Z,0
2017-10-09T03:21:14.035Z,0
2017-10-09T03:22:22.863Z,0
2017-10-09T03:23:31.692Z,0
2017-10-09T03:24:40.523Z,0
2017-10-09T03:25:49.404Z,0
2017-10-09T03:26:58.235Z,0
2017-10-09T03:28:07.067Z,0
2017-10-09T03:29:15.897Z,0
2017-10-09T03:30:24.730Z,0
2017-10-09T03:31:34.044Z,0
2017-10-09T03:32:42.873Z,0
2017-10-09T03:33:51.701Z,0
2017-10-09T03:35:00.537Z,0
2017-10-09T03:36:09.364Z,0
2017-10-09T03:37:18.244Z,0
2017-10-09T03:38:27.124Z,0
2017-10-09T03:39:35.951Z,0
2017-10-09T03:40:44.780Z,0
2017-10-09T03:41:53.615Z,0
2017-10-09T03:43:02.643Z,0
2017-10-09T03:44:11.472Z,0
2017-10-09T03:45:20.303Z,0
2017-10-09T03:46:29.132Z,0
2017-10-09T03:47:37.958Z,0
2017-10-09T03:48:46.841Z,0
2017-10-09T03:49:55.669Z,0
2017-10-09T03:51:04.497Z,0
2017-10-09T03:52:13.329Z,0
2017-10-09T03:53:22.493Z,0
2017-10-09T03:54:31.522Z,0
2017-10-09T03:55:40.350Z,0
2017-10-09T03:56:49.182Z,0
2017-10-09T03:57:58.013Z,0
2017-10-09T03:59:07.170Z,0
2017-10-09T04:00:16.049Z,0
2017-10-09T04:01:24.878Z,0
2017-10-09T04:02:33.707Z,0
2017-10-09T04:03:42.539Z,0
2017-10-09T04:04:51.369Z,0
2017-10-09T04:06:00.446Z,0
2017-10-09T04:07:09.275Z,0
2017-10-09T04:08:18.104Z,0
2017-10-09T04:09:26.932Z,0
2017-10-09T04:10:35.762Z,0
2017-10-09T04:11:44.750Z,0
2017-10-09T04:12:53.908Z,0
2017-10-09T04:14:02.737Z,0
2017-10-09T04:15:11.576Z,0
2017-10-09T04:16:20.405Z,0
2017-10-09T04:17:29.386Z,0
2017-10-09T04:18:38.215Z,0
2017-10-09T04:19:47.040Z,0
2017-10-09T04:20:55.868Z,0
2017-10-09T04:22:04.699Z,0
2017-10-09T04:23:13.628Z,0
2017-10-09T04:24:22.457Z,0
2017-10-09T04:25:31.284Z,0
2017-10-09T04:26:40.114Z,0
2017-10-09T04:27:48.943Z,0
2017-10-09T04:28:57.925Z,0
2017-10-09T04:30:06.755Z,0
2017-10-09T04:31:15.582Z,0
2017-10-09T04:32:24.411Z,0
2017-10-09T04:33:33.242Z,0
2017-10-09T04:34:42.118Z,0
2017-10-09T04:35:50.948Z,0
2017-10-09T04:36:59.779Z,0
2017-10-09T04:38:08.608Z,0
2017-10-09T04:39:17.436Z,0
2017-10-09T04:40:26.414Z,0
2017-10-09T04:41:35.242Z,0
2017-10-09T04:42:44.069Z,0
2017-10-09T04:43:52.900Z,0
2017-10-09T04:45:01.730Z,0
2017-10-09T04:46:10.715Z,0
2017-10-09T04:47:19.541Z,0
2017-10-09T04:48:28.369Z,0
2017-10-09T04:49:37.528Z,0
2017-10-09T04:50:46.358Z,0
2017-10-09T04:51:55.486Z,0
2017-10-09T04:53:04.649Z,0
2017-10-09T04:54:13.480Z,0
2017-10-09T04:55:22.308Z,0
2017-10-09T04:56:31.138Z,0
2017-10-09T04:57:40.068Z,0
2017-10-09T04:58:48.897Z,0
2017-10-09T04:59:57.725Z,0
2017-10-09T05:01:06.554Z,0
2017-10-09T05:02:15.384Z,0
2017-10-09T05:03:24.264Z,0
2017-10-09T05:04:33.095Z,0
2017-10-09T05:05:42.252Z,0
2017-10-09T05:06:51.083Z,0
2017-10-09T05:08:00.244Z,0
2017-10-09T05:09:09.226Z,0
2017-10-09T05:10:18.053Z,0
2017-10-09T05:11:26.881Z,0
2017-10-09T05:12:35.708Z,0
2017-10-09T05:13:44.535Z,0
2017-10-09T05:14:53.614Z,0
2017-10-09T05:16:02.442Z,0
2017-10-09T05:17:11.269Z,0
2017-10-09T05:18:20.098Z,0
2017-10-09T05:19:28.926Z,0
2017-10-09T05:20:37.953Z,0
2017-10-09T05:21:46.779Z,0
2017-10-09T05:22:55.608Z,0
2017-10-09T05:24:04.445Z,0
2017-10-09T05:25:13.273Z,0
2017-10-09T05:26:22.152Z,0
2017-10-09T05:27:30.982Z,5
2017-10-09T05:28:39.813Z,5
2017-10-09T05:29:48.643Z,5
2017-10-09T05:30:57.805Z,5
2017-10-09T05:32:06.933Z,5
2017-10-09T05:33:15.762Z,5
2017-10-09T05:34:24.592Z,5
2017-10-09T05:35:33.419Z,10
2017-10-09T05:36:42.248Z,10
2017-10-09T05:37:51.227Z,10
2017-10-09T05:39:00.054Z,10
2017-10-09T05:40:08.884Z,10
2017-10-09T05:41:17.714Z,10
2017-10-09T05:42:26.542Z,15
2017-10-09T05:43:35.469Z,15
2017-10-09T05:44:44.299Z,15
2017-10-09T05:45:53.128Z,15
2017-10-09T05:47:01.959Z,20
2017-10-09T05:48:10.786Z,20
2017-10-09T05:49:19.667Z,20
2017-10-09T05:50:28.499Z,20
2017-10-09T05:51:37.329Z,25
2017-10-09T05:52:46.159Z,25
2017-10-09T05:53:54.988Z,25
2017-10-09T05:55:04.015Z,30
2017-10-09T05:56:12.846Z,30
2017-10-09T05:57:21.675Z,35
2017-10-09T05:58:30.504Z,40
2017-10-09T05:59:39.334Z,40
2017-10-09T06:00:48.363Z,45
2017-10-09T06:01:57.192Z,50
2017-10-09T06:03:06.028Z,55
2017-10-09T06:04:14.858Z,50
2017-10-09T06:05:23.709Z,45
2017-10-09T06:06:33.001Z,45
2017-10-09T06:07:41.833Z,50
2017-10-09T06:08:50.660Z,50
2017-10-09T06:09:59.487Z,50
2017-10-09T06:11:08.316Z,50
2017-10-09T06:12:17.243Z,50
2017-10-09T06:13:26.074Z,55
2017-10-09T06:14:34.900Z,55
2017-10-09T06:15:43.729Z,60
2017-10-09T06:16:52.557Z,65
2017-10-09T06:18:01.436Z,65
2017-10-09T06:19:10.265Z,70
2017-10-09T06:20:19.094Z,75
2017-10-09T06:21:27.926Z,75
2017-10-09T06:22:36.757Z,80
2017-10-09T06:23:45.791Z,80
2017-10-09T06:24:54.622Z,80
2017-10-09T06:26:03.787Z,80
2017-10-09T06:27:12.947Z,75
2017-10-09T06:28:21.775Z,70
2017-10-09T06:29:30.704Z,75
2017-10-09T06:30:39.534Z,75
2017-10-09T06:31:48.364Z,75
2017-10-09T06:32:57.192Z,80
2017-10-09T06:34:06.022Z,85
2017-10-09T06:35:15.484Z,90
2017-10-09T06:36:24.315Z,95
2017-10-09T06:37:33.146Z,95
2017-10-09T06:38:41.973Z,100
2017-10-09T06:39:50.805Z,105
2017-10-09T06:40:59.932Z,110
2017-10-09T06:42:08.761Z,115
2017-10-09T06:43:17.591Z,115
2017-10-09T06:44:26.424Z,120
2017-10-09T06:45:35.250Z,120
2017-10-09T06:46:44.126Z,125
2017-10-09T06:47:52.957Z,125
2017-10-09T06:49:01.790Z,125
2017-10-09T06:50:10.619Z,125
2017-10-09T06:51:19.449Z,120
2017-10-09T06:52:28.480Z,115
2017-10-09T06:53:37.313Z,115
2017-10-09T06:54:46.140Z,110
2017-10-09T06:55:54.968Z,105
2017-10-09T06:57:03.800Z,100
2017-10-09T06:58:12.736Z,95
2017-10-09T06:59:21.562Z,95
2017-10-09T07:00:30.392Z,95
2017-10-09T07:01:39.221Z,95
2017-10-09T07:02:48.050Z,105
2017-10-09T07:03:57.033Z,110
2017-10-09T07:05:05.863Z,120
2017-10-09T07:06:14.692Z,125
2017-10-09T07:07:23.521Z,135
2017-10-09T07:08:32.350Z,135
2017-10-09T07:09:41.186Z,135
2017-10-09T07:10:50.010Z,135
2017-10-09T07:11:58.841Z,145
2017-10-09T07:13:07.672Z,150
2017-10-09T07:14:16.502Z,155
2017-10-09T07:15:25.383Z,160
2017-10-09T07:16:34.212Z,165
2017-10-09T07:17:43.043Z,165
2017-10-09T07:18:51.873Z,175
2017-10-09T07:20:00.702Z,180
2017-10-09T07:21:09.732Z,175
2017-10-09T07:22:18.563Z,160
2017-10-09T07:23:27.724Z,150
2017-10-09T07:24:36.555Z,140
2017-10-09T07:25:45.383Z,130
2017-10-09T07:26:54.264Z,125
2017-10-09T07:28:03.095Z,120
2017-10-09T07:29:11.923Z,115
2017-10-09T07:30:20.754Z,115
2017-10-09T07:31:29.582Z,120
2017-10-09T07:32:38.412Z,125
2017-10-09T07:33:47.242Z,130
2017-10-09T07:34:56.071Z,135
2017-10-09T07:36:04.900Z,135
2017-10-09T07:37:13.730Z,140
2017-10-09T07:38:22.811Z,140
2017-10-09T07:39:31.639Z,140
2017-10-09T07:40:40.470Z,140
2017-10-09T07:41:49.300Z,140
2017-10-09T07:42:58.464Z,140
2017-10-09T07:44:07.398Z,140
2017-10-09T07:45:16.229Z,145
2017-10-09T07:46:25.060Z,140
2017-10-09T07:47:33.893Z,135
2017-10-09T07:48:42.724Z,135
2017-10-09T07:49:51.709Z,135
2017-10-09T07:51:00.538Z,135
2017-10-09T07:52:09.370Z,135
2017-10-09T07:53:18.202Z,140
2017-10-09T07:54:27.032Z,135
2017-10-09T07:55:35.961Z,140
2017-10-09T07:56:44.794Z,140
2017-10-09T07:57:53.624Z,145
2017-10-09T07:59:02.453Z,145
2017-10-09T08:00:11.290Z,150
2017-10-09T08:01:20.420Z,150
2017-10-09T08:02:29.249Z,150
2017-10-09T08:03:38.079Z,150
2017-10-09T08:04:46.910Z,150
2017-10-09T08:05:55.742Z,145
2017-10-09T08:07:04.623Z,145
2017-10-09T08:08:13.785Z,145
2017-10-09T08:09:22.626Z,145
2017-10-09T08:10:31.447Z,150
2017-10-09T08:11:40.278Z,150
2017-10-09T08:12:49.257Z,160
2017-10-09T08:13:58.086Z,165
2017-10-09T08:15:06.919Z,170
2017-10-09T08:16:16.110Z,170
2017-10-09T08:17:24.939Z,175
2017-10-09T08:18:33.919Z,180
2017-10-09T08:19:42.747Z,190
2017-10-09T08:20:51.580Z,190
2017-10-09T08:22:00.412Z,190
2017-10-09T08:23:09.242Z,200
2017-10-09T08:24:18.324Z,210
2017-10-09T08:25:27.153Z,215
2017-10-09T08:26:36.015Z,220
2017-10-09T08:27:45.174Z,225
2017-10-09T08:28:54.006Z,230
2017-10-09T08:30:02.988Z,230
2017-10-09T08:31:11.819Z,225
2017-10-09T08:32:20.646Z,215
2017-10-09T08:33:29.477Z,205
2017-10-09T08:34:38.309Z,200
2017-10-09T08:35:47.438Z,205
2017-10-09T08:36:56.269Z,215
2017-10-09T08:38:05.102Z,210
2017-10-09T08:39:13.935Z,210
2017-10-09T08:40:22.768Z,210
2017-10-09T08:41:31.702Z,220
2017-10-09T08:42:40.533Z,225
2017-10-09T08:43:49.368Z,220
2017-10-09T08:44:58.200Z,220
2017-10-09T08:46:07.083Z,215
2017-10-09T08:47:15.966Z,205
2017-10-09T08:48:24.799Z,185
2017-10-09T08:49:33.631Z,165
2017-10-09T08:50:42.462Z,155
2017-10-09T08:51:51.294Z,145
2017-10-09T08:53:00.187Z,140
2017-10-09T08:54:09.018Z,140
2017-10-09T08:55:17.851Z,145
2017-10-09T08:56:26.684Z,160
2017-10-09T08:57:35.515Z,175
2017-10-09T08:58:44.544Z,185
2017-10-09T08:59:53.376Z,195
2017-10-09T09:01:02.211Z,210
2017-10-09T09:02:11.044Z,230
2017-10-09T09:03:19.876Z,265
2017-10-09T09:04:28.860Z,315
2017-10-09T09:05:37.694Z,335
2017-10-09T09:06:46.527Z,315
2017-10-09T09:07:55.365Z,285
2017-10-09T09:09:04.193Z,270
2017-10-09T09:10:13.228Z,255
2017-10-09T09:11:22.060Z,225
2017-10-09T09:12:30.897Z,215
2017-10-09T09:13:39.730Z,225
2017-10-09T09:14:48.564Z,210
2017-10-09T09:15:57.646Z,195
2017-10-09T09:17:06.476Z,190
2017-10-09T09:18:15.308Z,205
2017-10-09T09:19:24.143Z,220
2017-10-09T09:20:32.973Z,240
2017-10-09T09:21:42.009Z,280
2017-10-09T09:22:50.843Z,310
2017-10-09T09:23:59.676Z,310
2017-10-09T09:25:08.508Z,325
2017-10-09T09:26:17.342Z,340
2017-10-09T09:27:26.474Z,350
2017-10-09T09:28:35.305Z,340
2017-10-09T09:29:44.136Z,325
2017-10-09T09:30:52.968Z,380
2017-10-09T09:32:01.801Z,405
2017-10-09T09:33:10.785Z,385
2017-10-09T09:34:19.617Z,365
2017-10-09T09:35:28.476Z,355
2017-10-09T09:36:37.283Z,335
2017-10-09T09:37:46.116Z,305
2017-10-09T09:38:55.003Z,290
2017-10-09T09:40:03.836Z,280
2017-10-09T09:41:12.669Z,280
2017-10-09T09:42:21.505Z,275
2017-10-09T09:43:30.338Z,290
2017-10-09T09:44:39.222Z,300
2017-10-09T09:45:48.053Z,290
2017-10-09T09:46:56.887Z,275
2017-10-09T09:48:05.720Z,285
2017-10-09T09:49:14.553Z,310
2017-10-09T09:50:23.969Z,325
2017-10-09T09:51:32.801Z,330
2017-10-09T09:52:41.635Z,345
2017-10-09T09:53:50.469Z,345
2017-10-09T09:54:59.303Z,335
2017-10-09T09:56:08.187Z,320
2017-10-09T09:57:17.023Z,295
2017-10-09T09:58:25.853Z,275
2017-10-09T09:59:34.687Z,260
2017-10-09T10:00:43.520Z,255
2017-10-09T10:01:52.555Z,265
2017-10-09T10:03:01.393Z,280
2017-10-09T10:04:10.225Z,310
2017-10-09T10:05:19.056Z,310
2017-10-09T10:06:27.890Z,315
2017-10-09T10:07:36.772Z,335
2017-10-09T10:08:45.607Z,360
2017-10-09T10:09:54.443Z,385
2017-10-09T10:11:03.275Z,415
2017-10-09T10:12:12.113Z,445
2017-10-09T10:13:21.046Z,465
2017-10-09T10:14:29.880Z,465
2017-10-09T10:15:38.713Z,445
2017-10-09T10:16:47.547Z,425
2017-10-09T10:17:56.716Z,425
2017-10-09T10:19:05.850Z,425
2017-10-09T10:20:14.684Z,420
2017-10-09T10:21:23.518Z,435
2017-10-09T10:22:32.351Z,455
2017-10-09T10:23:41.186Z,460
2017-10-09T10:24:50.170Z,470
2017-10-09T10:25:59.003Z,480
2017-10-09T10:27:07.840Z,485
2017-10-09T10:28:16.676Z,480
2017-10-09T10:29:25.842Z,485
2017-10-09T10:30:34.827Z,500
2017-10-09T10:31:43.660Z,505
2017-10-09T10:32:52.494Z,535
2017-10-09T10:34:01.326Z,560
2017-10-09T10:35:10.162Z,570
2017-10-09T10:36:19.147Z,580
2017-10-09T10:37:27.982Z,570
2017-10-09T10:38:36.836Z,555
2017-10-09T10:39:45.656Z,535
2017-10-09T10:40:54.491Z,525
2017-10-09T10:42:03.731Z,510
2017-10-09T10:43:12.566Z,515
2017-10-09T10:44:21.399Z,520
2017-10-09T10:45:30.234Z,530
2017-10-09T10:46:39.397Z,525
2017-10-09T10:47:48.281Z,530
2017-10-09T10:48:57.115Z,535
2017-10-09T10:50:05.957Z,510
2017-10-09T10:51:14.792Z,485
2017-10-09T10:52:23.626Z,510
2017-10-09T10:53:32.661Z,510
2017-10-09T10:54:41.499Z,495
2017-10-09T10:55:50.334Z,500
2017-10-09T10:56:59.174Z,530
2017-10-09T10:58:08.009Z,535
2017-10-09T10:59:16.997Z,555
2017-10-09T11:00:25.833Z,560
2017-10-09T11:01:34.667Z,570
2017-10-09T11:02:43.500Z,575
2017-10-09T11:03:52.334Z,585
2017-10-09T11:05:01.367Z,555
2017-10-09T11:06:10.206Z,545
2017-10-09T11:07:19.040Z,545
2017-10-09T11:08:27.874Z,555
2017-10-09T11:09:36.709Z,565
2017-10-09T11:10:45.691Z,580
2017-10-09T11:11:54.523Z,610
2017-10-09T11:13:03.358Z,575
2017-10-09T11:14:12.250Z,550
2017-10-09T11:15:21.418Z,525
2017-10-09T11:16:31.147Z,480
2017-10-09T11:17:39.982Z,430
2017-10-09T11:18:48.817Z,395
2017-10-09T11:19:57.652Z,380
2017-10-09T11:21:06.485Z,390
2017-10-09T11:22:15.650Z,430
2017-10-09T11:23:24.485Z,460
2017-10-09T11:24:33.318Z,445
2017-10-09T11:25:42.153Z,410
2017-10-09T11:26:50.989Z,425
2017-10-09T11:27:59.822Z,460
2017-10-09T11:29:08.658Z,495
2017-10-09T11:30:17.490Z,505
2017-10-09T11:31:26.325Z,480
2017-10-09T11:32:35.158Z,430
2017-10-09T11:33:44.091Z,420
2017-10-09T11:34:52.926Z,450
2017-10-09T11:36:01.761Z,470
2017-10-09T11:37:10.594Z,480
2017-10-09T11:38:19.426Z,470
2017-10-09T11:39:28.312Z,455
2017-10-09T11:40:37.477Z,455
2017-10-09T11:41:46.311Z,450
2017-10-09T11:42:55.153Z,450
2017-10-09T11:44:03.981Z,440
2017-10-09T11:45:12.868Z,445
2017-10-09T11:46:21.710Z,455
2017-10-09T11:47:30.543Z,470
2017-10-09T11:48:39.707Z,525
2017-10-09T11:49:48.545Z,550
2017-10-09T11:50:57.779Z,550
2017-10-09T11:52:06.611Z,550
2017-10-09T11:53:15.445Z,515
2017-10-09T11:54:24.281Z,480
2017-10-09T11:55:33.116Z,470
2017-10-09T11:56:41.950Z,470
2017-10-09T11:57:51.113Z,470
2017-10-09T11:58:59.948Z,465
2017-10-09T12:00:08.779Z,455
2017-10-09T12:01:17.614Z,440
2017-10-09T12:02:26.647Z,420
2017-10-09T12:03:35.488Z,405
2017-10-09T12:04:44.651Z,410
2017-10-09T12:05:53.486Z,415
2017-10-09T12:07:02.319Z,415
2017-10-09T12:08:11.253Z,410
2017-10-09T12:09:20.089Z,415
2017-10-09T12:10:28.923Z,445
2017-10-09T12:11:37.758Z,445
2017-10-09T12:12:46.593Z,425
2017-10-09T12:13:55.477Z,425
2017-10-09T12:15:04.314Z,430
2017-10-09T12:16:13.149Z,405
2017-10-09T12:17:21.983Z,370
2017-10-09T12:18:30.817Z,330
2017-10-09T12:19:39.810Z,285
2017-10-09T12:20:48.645Z,270
2017-10-09T12:21:57.482Z,285
2017-10-09T12:23:06.315Z,345
2017-10-09T12:24:15.159Z,370
2017-10-09T12:25:24.145Z,395
2017-10-09T12:26:32.979Z,375
2017-10-09T12:27:41.810Z,370
2017-10-09T12:28:50.647Z,365
2017-10-09T12:29:59.486Z,330
2017-10-09T12:31:08.421Z,295
2017-10-09T12:32:17.256Z,295
2017-10-09T12:33:26.089Z,350
2017-10-09T12:34:34.923Z,330
2017-10-09T12:35:44.415Z,300
2017-10-09T12:36:53.450Z,300
2017-10-09T12:38:02.288Z,275
2017-10-09T12:39:11.117Z,285
2017-10-09T12:40:19.951Z,350
2017-10-09T12:41:28.784Z,360
2017-10-09T12:42:37.921Z,350
2017-10-09T12:43:46.755Z,315
2017-10-09T12:44:55.590Z,280
2017-10-09T12:46:04.424Z,225
2017-10-09T12:47:13.258Z,195
2017-10-09T12:48:22.342Z,190
2017-10-09T12:49:31.177Z,140
2017-10-09T12:50:40.013Z,115
2017-10-09T12:51:48.846Z,115
2017-10-09T12:52:57.679Z,125
2017-10-09T12:54:06.613Z,150
2017-10-09T12:55:15.446Z,135
2017-10-09T12:56:24.280Z,105
2017-10-09T12:57:33.115Z,105
2017-10-09T12:58:41.947Z,130
2017-10-09T12:59:50.931Z,190
2017-10-09T13:00:59.765Z,200
2017-10-09T13:02:08.601Z,195
2017-10-09T13:03:17.432Z,175
2017-10-09T13:04:26.266Z,165
2017-10-09T13:05:35.205Z,150
2017-10-09T13:06:44.037Z,155
2017-10-09T13:07:52.870Z,150
2017-10-09T13:09:01.718Z,150
2017-10-09T13:10:10.894Z,135
2017-10-09T13:11:19.876Z,100
2017-10-09T13:12:28.709Z,95
2017-10-09T13:13:37.875Z,90
2017-10-09T13:14:46.705Z,105
2017-10-09T13:15:55.537Z,100
2017-10-09T13:17:04.420Z,95
2017-10-09T13:18:13.254Z,85
2017-10-09T13:19:22.088Z,85
2017-10-09T13:20:30.918Z,90
2017-10-09T13:21:39.750Z,105
2017-10-09T13:22:48.886Z,100
2017-10-09T13:23:57.722Z,110
2017-10-09T13:25:06.556Z,105
2017-10-09T13:26:15.388Z,110
2017-10-09T13:27:24.222Z,115
2017-10-09T13:28:33.208Z,70
2017-10-09T13:29:42.041Z,60
2017-10-09T13:30:50.876Z,75
2017-10-09T13:31:59.710Z,100
2017-10-09T13:33:08.593Z,95
2017-10-09T13:34:17.726Z,120
2017-10-09T13:35:26.560Z,105
2017-10-09T13:36:35.411Z,95
2017-10-09T13:37:44.222Z,95
2017-10-09T13:38:53.056Z,125
2017-10-09T13:40:01.990Z,120
2017-10-09T13:41:10.823Z,140
2017-10-09T13:42:19.657Z,170
2017-10-09T13:43:28.490Z,185
2017-10-09T13:44:37.322Z,220
2017-10-09T13:45:46.304Z,280
2017-10-09T13:46:55.137Z,315
2017-10-09T13:48:03.973Z,225
2017-10-09T13:49:12.807Z,220
2017-10-09T13:50:21.640Z,240
2017-10-09T13:51:30.476Z,200
2017-10-09T13:52:39.637Z,140
2017-10-09T13:53:48.469Z,115
2017-10-09T13:54:57.301Z,100
2017-10-09T13:56:06.468Z,115
2017-10-09T13:57:15.502Z,125
2017-10-09T13:58:24.333Z,155
2017-10-09T13:59:33.170Z,165
2017-10-09T14:00:42.006Z,210
2017-10-09T14:01:50.839Z,220
2017-10-09T14:02:59.973Z,290
2017-10-09T14:04:08.807Z,295
2017-10-09T14:05:17.641Z,295
2017-10-09T14:06:26.804Z,280
2017-10-09T14:07:35.970Z,270
2017-10-09T14:08:44.803Z,245
2017-10-09T14:09:53.637Z,225
2017-10-09T14:11:02.469Z,210
2017-10-09T14:12:11.300Z,190
2017-10-09T14:13:20.133Z,180
2017-10-09T14:14:29.115Z,180
2017-10-09T14:15:37.946Z,160
2017-10-09T14:16:46.781Z,130
2017-10-09T14:17:55.614Z,120
2017-10-09T14:19:04.448Z,120
2017-10-09T14:20:13.382Z,105
2017-10-09T14:21:22.218Z,105
2017-10-09T14:22:31.052Z,95
2017-10-09T14:23:39.886Z,75
2017-10-09T14:24:48.720Z,60
2017-10-09T14:25:57.604Z,45
2017-10-09T14:27:06.441Z,35
2017-10-09T14:28:15.271Z,35
2017-10-09T14:29:24.106Z,35
2017-10-09T14:30:32.940Z,35
2017-10-09T14:39:45.590Z,60
2017-10-09T14:40:54.419Z,35
2017-10-09T14:42:03.597Z,30
2017-10-09T14:43:12.688Z,30
2017-10-09T14:44:21.572Z,30
2017-10-09T14:45:30.415Z,35
2017-10-09T14:46:39.239Z,40
2017-10-09T14:47:48.071Z,55
2017-10-09T14:48:57.055Z,70
2017-10-09T14:50:05.894Z,70
2017-10-09T14:51:14.785Z,80
2017-10-09T14:52:23.553Z,85
2017-10-09T14:53:32.738Z,95
2017-10-09T14:54:42.012Z,120
2017-10-09T14:55:50.847Z,135
2017-10-09T14:56:59.680Z,150
2017-10-09T14:58:08.515Z,150
2017-10-09T14:59:17.686Z,150
2017-10-09T15:00:26.820Z,165
2017-10-09T15:01:35.654Z,165
2017-10-09T15:02:44.486Z,165
2017-10-09T15:03:53.321Z,165
2017-10-09T15:05:02.154Z,170
2017-10-09T15:06:11.239Z,175
2017-10-09T15:07:20.073Z,180
2017-10-09T15:08:28.908Z,180
2017-10-09T15:09:37.743Z,180
2017-10-09T15:10:46.576Z,180
2017-10-09T15:11:56.055Z,175
2017-10-09T15:13:04.891Z,165
2017-10-09T15:14:13.725Z,160
2017-10-09T15:15:22.557Z,150
2017-10-09T15:16:31.390Z,140
2017-10-09T15:17:40.277Z,130
2017-10-09T15:18:49.112Z,125
2017-10-09T15:19:57.946Z,110
2017-10-09T15:21:06.778Z,95
2017-10-09T15:22:15.611Z,85
2017-10-09T15:23:24.545Z,75
2017-10-09T15:24:33.380Z,65
2017-10-09T15:25:42.560Z,65
2017-10-09T15:26:51.737Z,70
2017-10-09T15:28:00.573Z,80
2017-10-09T15:29:09.455Z,85
2017-10-09T15:30:18.290Z,80
2017-10-09T15:31:27.478Z,70
2017-10-09T15:32:36.310Z,65
2017-10-09T15:33:45.144Z,60
2017-10-09T15:34:54.378Z,60
2017-10-09T15:36:03.211Z,55
2017-10-09T15:37:12.046Z,50
2017-10-09T15:38:20.879Z,45
2017-10-09T15:39:29.712Z,40
2017-10-09T15:40:38.546Z,40
2017-10-09T15:41:47.380Z,35
2017-10-09T15:42:56.211Z,30
2017-10-09T15:44:05.044Z,20
2017-10-09T15:45:13.879Z,20
2017-10-09T15:46:23.017Z,15
2017-10-09T15:47:31.851Z,15
2017-10-09T15:48:40.682Z,10
2017-10-09T15:49:49.858Z,5
2017-10-09T15:50:58.691Z,5
2017-10-09T15:52:07.673Z,5
2017-10-09T15:53:16.507Z,5
2017-10-09T15:54:25.339Z,5
2017-10-09T15:55:34.248Z,5
2017-10-09T15:56:43.005Z,5
2017-10-09T15:57:51.939Z,5
2017-10-09T15:59:00.772Z,5
2017-10-09T16:00:09.607Z,5
2017-10-09T16:01:18.444Z,5
2017-10-09T16:02:27.276Z,5
2017-10-09T16:03:36.211Z,5
2017-10-09T16:04:45.046Z,10
2017-10-09T16:05:53.880Z,10
2017-10-09T16:07:02.713Z,10
2017-10-09T16:08:11.546Z,15
2017-10-09T16:09:20.380Z,20
2017-10-09T16:10:29.213Z,20
2017-10-09T16:11:38.045Z,15
2017-10-09T16:12:46.877Z,20
2017-10-09T16:13:55.715Z,20
2017-10-09T16:15:04.545Z,20
2017-10-09T16:16:13.378Z,20
2017-10-09T16:17:22.211Z,20
2017-10-09T16:18:31.044Z,20
2017-10-09T16:19:39.878Z,15
2017-10-09T16:20:48.964Z,15
2017-10-09T16:21:57.795Z,15
2017-10-09T16:23:06.628Z,10
2017-10-09T16:24:15.459Z,10
2017-10-09T16:25:24.290Z,10